sensor_id;sensor_type;location;lat;lon;timestamp;temperature;humidity
20833;DHT22;56075;51.264;7.150;2023-08-17T00:00:57;19.10;99.90
20833;DHT22;56075;51.264;7.150;2023-08-17T00:03:28;18.10;99.90
20833;DHT22;56075;51.264;7.150;2023-08-17T00:05:59;18.20;99.90
20833;DHT22;56075;51.264;7.150;2023-08-17T00:08:30;18.40;99.90
20833;DHT22;56075;51.264;7.150;2023-08-17T00:11:02;18.20;99.90
20833;DHT22;56075;51.264;7.150;2023-08-17T00:13:33;18.20;99.90
20833;DHT22;56075;51.264;7.150;2023-08-17T00:16:04;18.20;99.90
20833;DHT22;56075;51.264;7.150;2023-08-17T00:18:35;18.10;99.90
20833;DHT22;56075;51.264;7.150;2023-08-17T00:21:06;18.00;99.90
20833;DHT22;56075;51.264;7.150;2023-08-17T00:23:38;18.20;99.90
20833;DHT22;56075;51.264;7.150;2023-08-17T00:26:09;18.80;99.90
20833;DHT22;56075;51.264;7.150;2023-08-17T00:28:41;18.10;99.90
20833;DHT22;56075;51.264;7.150;2023-08-17T00:31:12;18.10;99.90
20833;DHT22;56075;51.264;7.150;2023-08-17T00:33:43;18.60;99.90
20833;DHT22;56075;51.264;7.150;2023-08-17T00:36:14;18.20;99.90
20833;DHT22;56075;51.264;7.150;2023-08-17T00:38:45;18.00;99.90
20833;DHT22;56075;51.264;7.150;2023-08-17T00:41:16;18.10;99.90
20833;DHT22;56075;51.264;7.150;2023-08-17T00:43:48;19.30;99.90
20833;DHT22;56075;51.264;7.150;2023-08-17T00:46:19;17.90;99.90
20833;DHT22;56075;51.264;7.150;2023-08-17T00:48:55;18.50;99.90
20833;DHT22;56075;51.264;7.150;2023-08-17T00:51:27;18.80;99.90
20833;DHT22;56075;51.264;7.150;2023-08-17T00:54:00;18.70;99.90
20833;DHT22;56075;51.264;7.150;2023-08-17T00:56:32;17.90;99.90
20833;DHT22;56075;51.264;7.150;2023-08-17T00:59:03;18.30;99.90
20833;DHT22;56075;51.264;7.150;2023-08-17T01:01:34;18.90;99.90
20833;DHT22;56075;51.264;7.150;2023-08-17T01:04:06;17.80;99.90
20833;DHT22;56075;51.264;7.150;2023-08-17T01:06:37;18.70;99.90
20833;DHT22;56075;51.264;7.150;2023-08-17T01:09:11;18.00;99.90
20833;DHT22;56075;51.264;7.150;2023-08-17T01:11:49;18.80;99.90
20833;DHT22;56075;51.264;7.150;2023-08-17T01:14:37;18.40;99.90
20833;DHT22;56075;51.264;7.150;2023-08-17T01:17:19;17.80;99.90
20833;DHT22;56075;51.264;7.150;2023-08-17T01:19:54;18.90;99.90
20833;DHT22;56075;51.264;7.150;2023-08-17T01:22:26;17.90;99.90
20833;DHT22;56075;51.264;7.150;2023-08-17T01:24:59;18.60;99.90
20833;DHT22;56075;51.264;7.150;2023-08-17T01:27:40;18.50;99.90
20833;DHT22;56075;51.264;7.150;2023-08-17T01:30:13;18.00;99.90
20833;DHT22;56075;51.264;7.150;2023-08-17T01:33:03;17.90;99.90
20833;DHT22;56075;51.264;7.150;2023-08-17T01:35:44;17.80;99.90
20833;DHT22;56075;51.264;7.150;2023-08-17T01:38:21;17.90;99.90
20833;DHT22;56075;51.264;7.150;2023-08-17T01:40:54;19.20;99.90
20833;DHT22;56075;51.264;7.150;2023-08-17T01:43:26;17.90;99.90
20833;DHT22;56075;51.264;7.150;2023-08-17T01:45:59;17.90;99.90
20833;DHT22;56075;51.264;7.150;2023-08-17T01:48:30;18.00;99.90
20833;DHT22;56075;51.264;7.150;2023-08-17T01:51:02;19.00;99.90
20833;DHT22;56075;51.264;7.150;2023-08-17T01:53:33;18.10;99.90
20833;DHT22;56075;51.264;7.150;2023-08-17T01:56:04;17.90;99.90
20833;DHT22;56075;51.264;7.150;2023-08-17T01:58:35;18.90;99.90
20833;DHT22;56075;51.264;7.150;2023-08-17T02:01:06;18.60;99.90
20833;DHT22;56075;51.264;7.150;2023-08-17T02:03:37;18.00;99.90
20833;DHT22;56075;51.264;7.150;2023-08-17T02:06:09;18.10;99.90
20833;DHT22;56075;51.264;7.150;2023-08-17T02:08:41;17.80;99.90
20833;DHT22;56075;51.264;7.150;2023-08-17T02:11:12;17.90;99.90
20833;DHT22;56075;51.264;7.150;2023-08-17T02:13:43;18.80;99.90
20833;DHT22;56075;51.264;7.150;2023-08-17T02:16:14;18.40;99.90
20833;DHT22;56075;51.264;7.150;2023-08-17T02:18:45;19.00;99.90
20833;DHT22;56075;51.264;7.150;2023-08-17T02:21:16;18.90;99.90
20833;DHT22;56075;51.264;7.150;2023-08-17T02:23:48;18.00;99.90
20833;DHT22;56075;51.264;7.150;2023-08-17T02:26:19;17.90;99.90
20833;DHT22;56075;51.264;7.150;2023-08-17T02:28:50;17.90;99.90
20833;DHT22;56075;51.264;7.150;2023-08-17T02:31:21;19.30;99.90
20833;DHT22;56075;51.264;7.150;2023-08-17T02:33:52;17.90;99.90
20833;DHT22;56075;51.264;7.150;2023-08-17T02:36:24;18.00;99.90
20833;DHT22;56075;51.264;7.150;2023-08-17T02:38:55;19.20;99.90
20833;DHT22;56075;51.264;7.150;2023-08-17T02:41:26;17.80;99.90
20833;DHT22;56075;51.264;7.150;2023-08-17T02:43:57;18.60;99.90
20833;DHT22;56075;51.264;7.150;2023-08-17T02:46:29;18.40;99.90
20833;DHT22;56075;51.264;7.150;2023-08-17T02:49:00;17.90;99.90
20833;DHT22;56075;51.264;7.150;2023-08-17T02:51:31;17.80;99.90
20833;DHT22;56075;51.264;7.150;2023-08-17T02:54:02;17.90;99.90
20833;DHT22;56075;51.264;7.150;2023-08-17T02:56:33;17.80;99.90
20833;DHT22;56075;51.264;7.150;2023-08-17T02:59:04;17.90;99.90
20833;DHT22;56075;51.264;7.150;2023-08-17T03:01:36;17.90;99.90
20833;DHT22;56075;51.264;7.150;2023-08-17T03:04:07;17.80;99.90
20833;DHT22;56075;51.264;7.150;2023-08-17T03:06:38;17.80;99.90
20833;DHT22;56075;51.264;7.150;2023-08-17T03:09:09;17.80;99.90
20833;DHT22;56075;51.264;7.150;2023-08-17T03:11:41;17.70;99.90
20833;DHT22;56075;51.264;7.150;2023-08-17T03:14:12;17.80;99.90
20833;DHT22;56075;51.264;7.150;2023-08-17T03:16:43;17.90;99.90
20833;DHT22;56075;51.264;7.150;2023-08-17T03:19:15;18.10;99.90
20833;DHT22;56075;51.264;7.150;2023-08-17T03:21:48;17.80;99.90
20833;DHT22;56075;51.264;7.150;2023-08-17T03:24:19;18.40;99.90
20833;DHT22;56075;51.264;7.150;2023-08-17T03:26:50;17.80;99.90
20833;DHT22;56075;51.264;7.150;2023-08-17T03:29:21;18.00;99.90
20833;DHT22;56075;51.264;7.150;2023-08-17T03:31:52;17.90;99.90
20833;DHT22;56075;51.264;7.150;2023-08-17T03:34:24;18.70;99.90
20833;DHT22;56075;51.264;7.150;2023-08-17T03:36:55;19.20;99.90
20833;DHT22;56075;51.264;7.150;2023-08-17T03:39:26;18.80;99.90
20833;DHT22;56075;51.264;7.150;2023-08-17T03:41:57;18.00;99.90
20833;DHT22;56075;51.264;7.150;2023-08-17T03:44:29;18.20;99.90
20833;DHT22;56075;51.264;7.150;2023-08-17T03:47:00;18.10;99.90
20833;DHT22;56075;51.264;7.150;2023-08-17T03:49:31;18.00;99.90
20833;DHT22;56075;51.264;7.150;2023-08-17T03:52:02;17.90;99.90
20833;DHT22;56075;51.264;7.150;2023-08-17T03:54:34;17.80;99.90
20833;DHT22;56075;51.264;7.150;2023-08-17T03:57:05;19.20;99.90
20833;DHT22;56075;51.264;7.150;2023-08-17T03:59:36;17.90;99.90
20833;DHT22;56075;51.264;7.150;2023-08-17T04:02:07;17.90;99.90
20833;DHT22;56075;51.264;7.150;2023-08-17T04:04:38;18.50;99.90
20833;DHT22;56075;51.264;7.150;2023-08-17T04:07:10;18.40;99.90
20833;DHT22;56075;51.264;7.150;2023-08-17T04:09:43;17.90;99.90
20833;DHT22;56075;51.264;7.150;2023-08-17T04:12:15;17.90;99.90
20833;DHT22;56075;51.264;7.150;2023-08-17T04:14:47;17.70;99.90
20833;DHT22;56075;51.264;7.150;2023-08-17T04:17:18;17.80;99.90
20833;DHT22;56075;51.264;7.150;2023-08-17T04:19:49;18.20;99.90
20833;DHT22;56075;51.264;7.150;2023-08-17T04:22:20;17.80;99.90
20833;DHT22;56075;51.264;7.150;2023-08-17T04:24:52;19.00;99.90
20833;DHT22;56075;51.264;7.150;2023-08-17T04:27:23;18.50;99.90
20833;DHT22;56075;51.264;7.150;2023-08-17T04:29:55;17.70;99.90
20833;DHT22;56075;51.264;7.150;2023-08-17T04:32:26;17.70;99.90
20833;DHT22;56075;51.264;7.150;2023-08-17T04:34:57;18.40;99.90
20833;DHT22;56075;51.264;7.150;2023-08-17T04:37:28;17.70;99.90
20833;DHT22;56075;51.264;7.150;2023-08-17T04:40:00;17.70;99.90
20833;DHT22;56075;51.264;7.150;2023-08-17T04:42:32;18.20;99.90
20833;DHT22;56075;51.264;7.150;2023-08-17T04:45:04;17.70;99.90
20833;DHT22;56075;51.264;7.150;2023-08-17T04:47:39;17.60;99.90
20833;DHT22;56075;51.264;7.150;2023-08-17T04:50:10;18.40;99.90
20833;DHT22;56075;51.264;7.150;2023-08-17T04:52:47;17.60;99.90
20833;DHT22;56075;51.264;7.150;2023-08-17T04:55:18;17.80;99.90
20833;DHT22;56075;51.264;7.150;2023-08-17T04:57:49;17.70;99.90
20833;DHT22;56075;51.264;7.150;2023-08-17T05:00:21;19.20;99.90
20833;DHT22;56075;51.264;7.150;2023-08-17T05:02:59;17.80;99.90
20833;DHT22;56075;51.264;7.150;2023-08-17T05:05:36;17.80;99.90
20833;DHT22;56075;51.264;7.150;2023-08-17T05:08:11;18.10;99.90
20833;DHT22;56075;51.264;7.150;2023-08-17T05:10:43;17.70;99.90
20833;DHT22;56075;51.264;7.150;2023-08-17T05:13:15;17.90;99.90
20833;DHT22;56075;51.264;7.150;2023-08-17T05:15:46;17.70;99.90
20833;DHT22;56075;51.264;7.150;2023-08-17T05:18:19;17.80;99.90
20833;DHT22;56075;51.264;7.150;2023-08-17T05:20:51;17.70;99.90
20833;DHT22;56075;51.264;7.150;2023-08-17T05:23:22;18.70;99.90
20833;DHT22;56075;51.264;7.150;2023-08-17T05:25:53;17.70;99.90
20833;DHT22;56075;51.264;7.150;2023-08-17T05:28:24;19.00;99.90
20833;DHT22;56075;51.264;7.150;2023-08-17T05:30:56;17.70;99.90
20833;DHT22;56075;51.264;7.150;2023-08-17T05:33:27;18.20;99.90
20833;DHT22;56075;51.264;7.150;2023-08-17T05:36:00;17.70;99.90
20833;DHT22;56075;51.264;7.150;2023-08-17T05:38:31;17.90;99.90
20833;DHT22;56075;51.264;7.150;2023-08-17T05:41:02;17.90;99.90
20833;DHT22;56075;51.264;7.150;2023-08-17T05:43:33;18.00;99.90
20833;DHT22;56075;51.264;7.150;2023-08-17T05:46:05;17.90;99.90
20833;DHT22;56075;51.264;7.150;2023-08-17T05:48:36;18.00;99.90
20833;DHT22;56075;51.264;7.150;2023-08-17T05:51:07;17.90;99.90
20833;DHT22;56075;51.264;7.150;2023-08-17T05:53:38;18.00;99.90
20833;DHT22;56075;51.264;7.150;2023-08-17T05:56:09;18.00;99.90
20833;DHT22;56075;51.264;7.150;2023-08-17T05:58:40;18.00;99.90
20833;DHT22;56075;51.264;7.150;2023-08-17T06:01:12;19.00;99.90
20833;DHT22;56075;51.264;7.150;2023-08-17T06:03:43;18.10;99.90
20833;DHT22;56075;51.264;7.150;2023-08-17T06:06:14;18.20;99.90
20833;DHT22;56075;51.264;7.150;2023-08-17T06:08:45;18.30;99.90
20833;DHT22;56075;51.264;7.150;2023-08-17T06:11:16;18.30;99.90
20833;DHT22;56075;51.264;7.150;2023-08-17T06:13:47;18.40;99.90
20833;DHT22;56075;51.264;7.150;2023-08-17T06:16:19;18.30;99.90
20833;DHT22;56075;51.264;7.150;2023-08-17T06:18:50;18.30;99.90
20833;DHT22;56075;51.264;7.150;2023-08-17T06:21:21;18.30;99.90
20833;DHT22;56075;51.264;7.150;2023-08-17T06:23:52;19.20;99.90
20833;DHT22;56075;51.264;7.150;2023-08-17T06:26:25;18.90;99.90
20833;DHT22;56075;51.264;7.150;2023-08-17T06:28:56;18.40;99.90
20833;DHT22;56075;51.264;7.150;2023-08-17T06:31:27;18.70;99.90
20833;DHT22;56075;51.264;7.150;2023-08-17T06:33:59;18.50;99.90
20833;DHT22;56075;51.264;7.150;2023-08-17T06:36:31;19.30;99.90
20833;DHT22;56075;51.264;7.150;2023-08-17T06:39:03;19.50;99.90
20833;DHT22;56075;51.264;7.150;2023-08-17T06:41:35;18.50;99.90
20833;DHT22;56075;51.264;7.150;2023-08-17T06:44:07;19.10;99.90
20833;DHT22;56075;51.264;7.150;2023-08-17T06:46:38;18.90;99.90
20833;DHT22;56075;51.264;7.150;2023-08-17T06:49:10;19.00;99.90
20833;DHT22;56075;51.264;7.150;2023-08-17T06:51:42;19.50;99.90
20833;DHT22;56075;51.264;7.150;2023-08-17T06:54:13;18.90;99.90
20833;DHT22;56075;51.264;7.150;2023-08-17T06:56:44;19.00;99.90
20833;DHT22;56075;51.264;7.150;2023-08-17T06:59:15;18.90;99.90
20833;DHT22;56075;51.264;7.150;2023-08-17T07:01:47;20.00;99.90
20833;DHT22;56075;51.264;7.150;2023-08-17T07:04:18;19.30;99.90
20833;DHT22;56075;51.264;7.150;2023-08-17T07:06:49;19.20;99.90
20833;DHT22;56075;51.264;7.150;2023-08-17T07:09:20;19.70;99.90
20833;DHT22;56075;51.264;7.150;2023-08-17T07:11:51;20.00;99.90
20833;DHT22;56075;51.264;7.150;2023-08-17T07:14:23;19.20;99.90
20833;DHT22;56075;51.264;7.150;2023-08-17T07:16:54;19.50;99.90
20833;DHT22;56075;51.264;7.150;2023-08-17T07:19:25;19.30;99.90
20833;DHT22;56075;51.264;7.150;2023-08-17T07:21:56;19.50;99.90
20833;DHT22;56075;51.264;7.150;2023-08-17T07:24:27;19.30;99.90
20833;DHT22;56075;51.264;7.150;2023-08-17T07:26:59;19.50;99.90
20833;DHT22;56075;51.264;7.150;2023-08-17T07:29:30;19.60;99.90
20833;DHT22;56075;51.264;7.150;2023-08-17T07:32:02;19.50;99.90
20833;DHT22;56075;51.264;7.150;2023-08-17T07:34:33;19.50;99.90
20833;DHT22;56075;51.264;7.150;2023-08-17T07:37:05;19.60;99.90
20833;DHT22;56075;51.264;7.150;2023-08-17T07:39:37;20.60;99.90
20833;DHT22;56075;51.264;7.150;2023-08-17T07:42:08;19.80;99.90
20833;DHT22;56075;51.264;7.150;2023-08-17T07:44:39;20.10;99.90
20833;DHT22;56075;51.264;7.150;2023-08-17T07:47:10;19.80;99.90
20833;DHT22;56075;51.264;7.150;2023-08-17T07:49:42;19.90;99.90
20833;DHT22;56075;51.264;7.150;2023-08-17T07:52:13;19.80;99.90
20833;DHT22;56075;51.264;7.150;2023-08-17T07:54:46;19.80;99.90
20833;DHT22;56075;51.264;7.150;2023-08-17T07:57:17;19.90;99.90
20833;DHT22;56075;51.264;7.150;2023-08-17T07:59:48;19.80;99.90
20833;DHT22;56075;51.264;7.150;2023-08-17T08:02:19;20.00;99.90
20833;DHT22;56075;51.264;7.150;2023-08-17T08:04:50;20.00;99.90
20833;DHT22;56075;51.264;7.150;2023-08-17T08:07:22;19.90;99.90
20833;DHT22;56075;51.264;7.150;2023-08-17T08:09:53;20.30;99.90
20833;DHT22;56075;51.264;7.150;2023-08-17T08:12:24;20.20;99.90
20833;DHT22;56075;51.264;7.150;2023-08-17T08:14:55;21.00;99.90
20833;DHT22;56075;51.264;7.150;2023-08-17T08:17:26;20.30;99.90
20833;DHT22;56075;51.264;7.150;2023-08-17T08:19:57;21.00;99.90
20833;DHT22;56075;51.264;7.150;2023-08-17T08:22:29;20.30;99.90
20833;DHT22;56075;51.264;7.150;2023-08-17T08:25:00;20.30;99.90
20833;DHT22;56075;51.264;7.150;2023-08-17T08:27:31;20.50;99.90
20833;DHT22;56075;51.264;7.150;2023-08-17T08:30:02;20.60;99.90
20833;DHT22;56075;51.264;7.150;2023-08-17T08:32:34;20.60;99.90
20833;DHT22;56075;51.264;7.150;2023-08-17T08:35:05;20.60;99.90
20833;DHT22;56075;51.264;7.150;2023-08-17T08:37:36;20.60;99.90
20833;DHT22;56075;51.264;7.150;2023-08-17T08:40:11;20.70;99.90
20833;DHT22;56075;51.264;7.150;2023-08-17T08:42:44;21.10;99.90
20833;DHT22;56075;51.264;7.150;2023-08-17T08:45:15;20.70;99.90
20833;DHT22;56075;51.264;7.150;2023-08-17T08:47:46;20.70;99.90
20833;DHT22;56075;51.264;7.150;2023-08-17T08:50:19;21.10;99.90
20833;DHT22;56075;51.264;7.150;2023-08-17T08:52:58;21.20;99.90
20833;DHT22;56075;51.264;7.150;2023-08-17T08:55:36;20.70;99.90
20833;DHT22;56075;51.264;7.150;2023-08-17T08:58:08;20.90;99.90
20833;DHT22;56075;51.264;7.150;2023-08-17T09:00:40;20.90;99.90
20833;DHT22;56075;51.264;7.150;2023-08-17T09:03:11;22.10;99.90
20833;DHT22;56075;51.264;7.150;2023-08-17T09:05:44;21.50;99.90
20833;DHT22;56075;51.264;7.150;2023-08-17T09:08:22;21.40;99.90
20833;DHT22;56075;51.264;7.150;2023-08-17T09:10:53;21.50;99.90
20833;DHT22;56075;51.264;7.150;2023-08-17T09:13:24;21.50;99.90
20833;DHT22;56075;51.264;7.150;2023-08-17T09:15:58;21.60;99.90
20833;DHT22;56075;51.264;7.150;2023-08-17T09:18:30;21.50;99.90
20833;DHT22;56075;51.264;7.150;2023-08-17T09:21:02;21.60;99.90
20833;DHT22;56075;51.264;7.150;2023-08-17T09:23:33;21.60;99.90
20833;DHT22;56075;51.264;7.150;2023-08-17T09:26:11;21.70;99.90
20833;DHT22;56075;51.264;7.150;2023-08-17T09:28:42;21.70;99.90
20833;DHT22;56075;51.264;7.150;2023-08-17T09:31:13;21.70;99.90
20833;DHT22;56075;51.264;7.150;2023-08-17T09:33:49;21.80;99.90
20833;DHT22;56075;51.264;7.150;2023-08-17T09:36:21;21.80;99.90
20833;DHT22;56075;51.264;7.150;2023-08-17T09:38:53;22.00;99.90
20833;DHT22;56075;51.264;7.150;2023-08-17T09:41:26;22.00;99.90
20833;DHT22;56075;51.264;7.150;2023-08-17T09:43:57;22.10;99.90
20833;DHT22;56075;51.264;7.150;2023-08-17T09:46:29;22.20;99.90
20833;DHT22;56075;51.264;7.150;2023-08-17T09:49:02;22.30;99.90
20833;DHT22;56075;51.264;7.150;2023-08-17T09:51:35;22.20;99.90
20833;DHT22;56075;51.264;7.150;2023-08-17T09:54:06;22.60;99.90
20833;DHT22;56075;51.264;7.150;2023-08-17T09:56:38;22.40;99.90
20833;DHT22;56075;51.264;7.150;2023-08-17T09:59:09;23.30;99.90
20833;DHT22;56075;51.264;7.150;2023-08-17T10:01:41;22.70;99.90
20833;DHT22;56075;51.264;7.150;2023-08-17T10:04:13;22.60;99.90
20833;DHT22;56075;51.264;7.150;2023-08-17T10:06:58;22.80;99.90
20833;DHT22;56075;51.264;7.150;2023-08-17T10:09:36;22.50;99.90
20833;DHT22;56075;51.264;7.150;2023-08-17T10:12:15;23.00;99.90
20833;DHT22;56075;51.264;7.150;2023-08-17T10:14:51;22.80;99.90
20833;DHT22;56075;51.264;7.150;2023-08-17T10:17:33;22.70;99.90
20833;DHT22;56075;51.264;7.150;2023-08-17T10:20:06;22.50;99.90
20833;DHT22;56075;51.264;7.150;2023-08-17T10:22:55;22.50;99.90
20833;DHT22;56075;51.264;7.150;2023-08-17T10:25:27;22.40;99.90
20833;DHT22;56075;51.264;7.150;2023-08-17T10:28:00;22.60;99.90
20833;DHT22;56075;51.264;7.150;2023-08-17T10:30:34;22.50;99.90
20833;DHT22;56075;51.264;7.150;2023-08-17T10:33:06;22.50;99.90
20833;DHT22;56075;51.264;7.150;2023-08-17T10:35:38;22.30;99.90
20833;DHT22;56075;51.264;7.150;2023-08-17T10:38:11;22.80;99.90
20833;DHT22;56075;51.264;7.150;2023-08-17T10:40:43;22.40;99.90
20833;DHT22;56075;51.264;7.150;2023-08-17T10:43:14;22.40;99.90
20833;DHT22;56075;51.264;7.150;2023-08-17T10:45:45;22.60;99.90
20833;DHT22;56075;51.264;7.150;2023-08-17T10:48:25;22.50;99.90
20833;DHT22;56075;51.264;7.150;2023-08-17T10:51:02;22.50;99.90
20833;DHT22;56075;51.264;7.150;2023-08-17T10:53:36;22.90;99.90
20833;DHT22;56075;51.264;7.150;2023-08-17T10:56:12;22.70;99.90
20833;DHT22;56075;51.264;7.150;2023-08-17T10:58:44;22.90;99.90
20833;DHT22;56075;51.264;7.150;2023-08-17T11:01:33;23.20;99.90
20833;DHT22;56075;51.264;7.150;2023-08-17T11:04:32;23.10;99.90
20833;DHT22;56075;51.264;7.150;2023-08-17T11:07:03;23.40;99.90
20833;DHT22;56075;51.264;7.150;2023-08-17T11:09:35;23.20;99.90
20833;DHT22;56075;51.264;7.150;2023-08-17T11:12:25;23.40;99.90
20833;DHT22;56075;51.264;7.150;2023-08-17T11:14:57;23.30;99.90
20833;DHT22;56075;51.264;7.150;2023-08-17T11:17:30;23.80;99.90
20833;DHT22;56075;51.264;7.150;2023-08-17T11:20:01;23.60;99.90
20833;DHT22;56075;51.264;7.150;2023-08-17T11:22:33;24.80;99.90
20833;DHT22;56075;51.264;7.150;2023-08-17T11:25:04;23.80;99.90
20833;DHT22;56075;51.264;7.150;2023-08-17T11:27:36;23.70;99.90
20833;DHT22;56075;51.264;7.150;2023-08-17T11:30:08;24.00;99.90
20833;DHT22;56075;51.264;7.150;2023-08-17T11:32:40;24.10;99.90
20833;DHT22;56075;51.264;7.150;2023-08-17T11:35:11;25.00;99.90
20833;DHT22;56075;51.264;7.150;2023-08-17T11:37:42;24.30;99.90
20833;DHT22;56075;51.264;7.150;2023-08-17T11:40:15;24.40;99.90
20833;DHT22;56075;51.264;7.150;2023-08-17T11:42:46;24.50;99.90
20833;DHT22;56075;51.264;7.150;2023-08-17T11:45:19;25.60;99.90
20833;DHT22;56075;51.264;7.150;2023-08-17T11:47:51;24.70;99.90
20833;DHT22;56075;51.264;7.150;2023-08-17T11:50:25;24.50;99.90
20833;DHT22;56075;51.264;7.150;2023-08-17T11:52:59;24.60;99.90
20833;DHT22;56075;51.264;7.150;2023-08-17T11:55:31;24.70;99.90
20833;DHT22;56075;51.264;7.150;2023-08-17T11:58:03;24.80;99.90
20833;DHT22;56075;51.264;7.150;2023-08-17T12:00:42;24.90;99.90
20833;DHT22;56075;51.264;7.150;2023-08-17T12:03:18;26.00;99.90
20833;DHT22;56075;51.264;7.150;2023-08-17T12:05:50;25.00;99.90
20833;DHT22;56075;51.264;7.150;2023-08-17T12:08:22;25.00;99.90
20833;DHT22;56075;51.264;7.150;2023-08-17T12:10:54;25.00;99.90
20833;DHT22;56075;51.264;7.150;2023-08-17T12:13:35;25.30;99.90
20833;DHT22;56075;51.264;7.150;2023-08-17T12:16:14;25.00;99.90
20833;DHT22;56075;51.264;7.150;2023-08-17T12:18:50;24.80;99.90
20833;DHT22;56075;51.264;7.150;2023-08-17T12:21:22;24.90;99.90
20833;DHT22;56075;51.264;7.150;2023-08-17T12:23:53;24.80;99.90
20833;DHT22;56075;51.264;7.150;2023-08-17T12:26:24;24.80;99.90
20833;DHT22;56075;51.264;7.150;2023-08-17T12:28:56;25.00;99.90
20833;DHT22;56075;51.264;7.150;2023-08-17T12:31:29;24.70;99.90
20833;DHT22;56075;51.264;7.150;2023-08-17T12:34:00;24.70;99.90
20833;DHT22;56075;51.264;7.150;2023-08-17T12:36:35;24.80;99.90
20833;DHT22;56075;51.264;7.150;2023-08-17T12:39:06;24.70;99.90
20833;DHT22;56075;51.264;7.150;2023-08-17T12:41:37;25.60;99.90
20833;DHT22;56075;51.264;7.150;2023-08-17T12:44:09;25.90;99.90
20833;DHT22;56075;51.264;7.150;2023-08-17T12:46:43;25.90;99.90
20833;DHT22;56075;51.264;7.150;2023-08-17T12:49:14;25.60;99.90
20833;DHT22;56075;51.264;7.150;2023-08-17T12:51:45;25.50;99.90
20833;DHT22;56075;51.264;7.150;2023-08-17T12:54:17;25.70;99.90
20833;DHT22;56075;51.264;7.150;2023-08-17T12:56:49;25.70;99.90
20833;DHT22;56075;51.264;7.150;2023-08-17T12:59:20;24.50;99.90
20833;DHT22;56075;51.264;7.150;2023-08-17T13:01:51;24.40;99.90
20833;DHT22;56075;51.264;7.150;2023-08-17T13:04:22;24.40;99.90
20833;DHT22;56075;51.264;7.150;2023-08-17T13:06:53;24.30;99.90
20833;DHT22;56075;51.264;7.150;2023-08-17T13:09:26;24.20;99.90
20833;DHT22;56075;51.264;7.150;2023-08-17T13:11:57;24.40;99.90
20833;DHT22;56075;51.264;7.150;2023-08-17T13:14:28;25.40;99.90
20833;DHT22;56075;51.264;7.150;2023-08-17T13:16:59;25.30;99.90
20833;DHT22;56075;51.264;7.150;2023-08-17T13:19:30;25.40;99.90
20833;DHT22;56075;51.264;7.150;2023-08-17T13:22:02;25.40;99.90
20833;DHT22;56075;51.264;7.150;2023-08-17T13:24:33;25.30;99.90
20833;DHT22;56075;51.264;7.150;2023-08-17T13:27:04;25.50;99.90
20833;DHT22;56075;51.264;7.150;2023-08-17T13:29:36;25.50;99.90
20833;DHT22;56075;51.264;7.150;2023-08-17T13:32:09;25.50;99.90
20833;DHT22;56075;51.264;7.150;2023-08-17T13:34:40;25.40;99.90
20833;DHT22;56075;51.264;7.150;2023-08-17T13:37:11;25.50;99.90
20833;DHT22;56075;51.264;7.150;2023-08-17T13:39:44;25.60;99.90
20833;DHT22;56075;51.264;7.150;2023-08-17T13:42:15;25.50;99.90
20833;DHT22;56075;51.264;7.150;2023-08-17T13:44:46;25.80;99.90
20833;DHT22;56075;51.264;7.150;2023-08-17T13:47:17;26.10;99.90
20833;DHT22;56075;51.264;7.150;2023-08-17T13:49:48;26.30;99.90
20833;DHT22;56075;51.264;7.150;2023-08-17T13:52:20;26.60;99.90
20833;DHT22;56075;51.264;7.150;2023-08-17T13:54:51;26.90;99.90
20833;DHT22;56075;51.264;7.150;2023-08-17T13:57:22;27.00;99.90
20833;DHT22;56075;51.264;7.150;2023-08-17T13:59:53;27.30;99.90
20833;DHT22;56075;51.264;7.150;2023-08-17T14:02:24;27.10;99.90
20833;DHT22;56075;51.264;7.150;2023-08-17T14:04:55;27.20;99.90
20833;DHT22;56075;51.264;7.150;2023-08-17T14:07:26;27.10;99.90
20833;DHT22;56075;51.264;7.150;2023-08-17T14:09:57;26.90;99.90
20833;DHT22;56075;51.264;7.150;2023-08-17T14:12:30;26.80;99.90
20833;DHT22;56075;51.264;7.150;2023-08-17T14:15:04;26.70;99.90
20833;DHT22;56075;51.264;7.150;2023-08-17T14:17:35;26.90;99.90
20833;DHT22;56075;51.264;7.150;2023-08-17T14:20:06;26.90;99.90
20833;DHT22;56075;51.264;7.150;2023-08-17T14:22:39;27.10;99.90
20833;DHT22;56075;51.264;7.150;2023-08-17T14:25:10;27.10;99.90
20833;DHT22;56075;51.264;7.150;2023-08-17T14:27:41;26.90;99.90
20833;DHT22;56075;51.264;7.150;2023-08-17T14:30:13;26.80;99.90
20833;DHT22;56075;51.264;7.150;2023-08-17T14:32:44;26.60;99.90
20833;DHT22;56075;51.264;7.150;2023-08-17T14:35:15;26.50;99.90
20833;DHT22;56075;51.264;7.150;2023-08-17T14:37:46;26.30;99.90
20833;DHT22;56075;51.264;7.150;2023-08-17T14:40:17;26.50;99.90
20833;DHT22;56075;51.264;7.150;2023-08-17T14:42:49;26.20;99.90
20833;DHT22;56075;51.264;7.150;2023-08-17T14:45:20;26.10;99.90
20833;DHT22;56075;51.264;7.150;2023-08-17T14:47:51;26.20;99.90
20833;DHT22;56075;51.264;7.150;2023-08-17T14:50:23;26.00;99.90
20833;DHT22;56075;51.264;7.150;2023-08-17T14:52:57;25.90;99.90
20833;DHT22;56075;51.264;7.150;2023-08-17T14:55:31;25.50;99.90
20833;DHT22;56075;51.264;7.150;2023-08-17T14:58:02;25.70;99.90
20833;DHT22;56075;51.264;7.150;2023-08-17T15:00:33;25.80;99.90
20833;DHT22;56075;51.264;7.150;2023-08-17T15:03:05;25.90;99.90
20833;DHT22;56075;51.264;7.150;2023-08-17T15:05:36;26.00;99.90
20833;DHT22;56075;51.264;7.150;2023-08-17T15:08:08;25.90;99.90
20833;DHT22;56075;51.264;7.150;2023-08-17T15:10:39;25.80;99.90
20833;DHT22;56075;51.264;7.150;2023-08-17T15:13:10;25.80;99.90
20833;DHT22;56075;51.264;7.150;2023-08-17T15:15:42;25.70;99.90
20833;DHT22;56075;51.264;7.150;2023-08-17T15:18:16;25.80;99.90
20833;DHT22;56075;51.264;7.150;2023-08-17T15:20:48;25.70;99.90
20833;DHT22;56075;51.264;7.150;2023-08-17T15:23:19;25.80;99.90
20833;DHT22;56075;51.264;7.150;2023-08-17T15:25:50;25.80;99.90
20833;DHT22;56075;51.264;7.150;2023-08-17T15:28:21;25.60;99.90
20833;DHT22;56075;51.264;7.150;2023-08-17T15:31:03;25.50;99.90
20833;DHT22;56075;51.264;7.150;2023-08-17T15:33:40;25.80;99.90
20833;DHT22;56075;51.264;7.150;2023-08-17T15:36:11;26.10;99.90
20833;DHT22;56075;51.264;7.150;2023-08-17T15:38:43;26.90;99.90
20833;DHT22;56075;51.264;7.150;2023-08-17T15:41:14;26.20;99.90
20833;DHT22;56075;51.264;7.150;2023-08-17T15:43:46;26.20;99.90
20833;DHT22;56075;51.264;7.150;2023-08-17T15:46:17;26.40;99.90
20833;DHT22;56075;51.264;7.150;2023-08-17T15:48:49;26.40;99.90
20833;DHT22;56075;51.264;7.150;2023-08-17T15:51:20;26.50;99.90
20833;DHT22;56075;51.264;7.150;2023-08-17T15:53:51;26.50;99.90
20833;DHT22;56075;51.264;7.150;2023-08-17T15:56:22;26.50;99.90
20833;DHT22;56075;51.264;7.150;2023-08-17T15:58:53;26.30;99.90
20833;DHT22;56075;51.264;7.150;2023-08-17T16:01:24;26.10;99.90